sensor_id;sensor_type;location;lat;lon;timestamp;temperature;humidity
18876;DHT22;9570;50.854;13.778;2023-01-28T00:00:23;0.90;99.90
18876;DHT22;9570;50.854;13.778;2023-01-28T00:02:49;1.00;99.90
18876;DHT22;9570;50.854;13.778;2023-01-28T00:05:15;1.00;99.90
18876;DHT22;9570;50.854;13.778;2023-01-28T00:07:40;1.00;99.90
18876;DHT22;9570;50.854;13.778;2023-01-28T00:10:06;1.00;99.90
18876;DHT22;9570;50.854;13.778;2023-01-28T00:12:32;1.00;99.90
18876;DHT22;9570;50.854;13.778;2023-01-28T00:14:57;1.00;99.90
18876;DHT22;9570;50.854;13.778;2023-01-28T00:17:23;1.00;99.90
18876;DHT22;9570;50.854;13.778;2023-01-28T00:19:48;1.00;99.90
18876;DHT22;9570;50.854;13.778;2023-01-28T00:22:13;1.00;99.90
18876;DHT22;9570;50.854;13.778;2023-01-28T00:24:39;1.00;99.90
18876;DHT22;9570;50.854;13.778;2023-01-28T00:27:05;0.90;99.90
18876;DHT22;9570;50.854;13.778;2023-01-28T00:29:30;0.90;99.90
18876;DHT22;9570;50.854;13.778;2023-01-28T00:31:55;0.90;99.90
18876;DHT22;9570;50.854;13.778;2023-01-28T00:34:21;0.80;99.90
18876;DHT22;9570;50.854;13.778;2023-01-28T00:36:47;0.70;99.90
18876;DHT22;9570;50.854;13.778;2023-01-28T00:39:25;0.70;99.90
18876;DHT22;9570;50.854;13.778;2023-01-28T00:41:51;0.80;99.90
18876;DHT22;9570;50.854;13.778;2023-01-28T00:44:17;0.70;99.90
18876;DHT22;9570;50.854;13.778;2023-01-28T00:46:43;0.70;99.90
18876;DHT22;9570;50.854;13.778;2023-01-28T00:49:09;0.70;99.90
18876;DHT22;9570;50.854;13.778;2023-01-28T00:51:34;0.70;99.90
18876;DHT22;9570;50.854;13.778;2023-01-28T00:54:00;0.70;99.90
18876;DHT22;9570;50.854;13.778;2023-01-28T00:56:25;0.70;99.90
18876;DHT22;9570;50.854;13.778;2023-01-28T00:58:51;0.70;99.90
18876;DHT22;9570;50.854;13.778;2023-01-28T01:01:22;0.70;99.90
18876;DHT22;9570;50.854;13.778;2023-01-28T01:03:49;0.60;99.90
18876;DHT22;9570;50.854;13.778;2023-01-28T01:06:32;0.60;99.90
18876;DHT22;9570;50.854;13.778;2023-01-28T01:08:58;0.60;99.90
18876;DHT22;9570;50.854;13.778;2023-01-28T01:11:24;0.70;99.90
18876;DHT22;9570;50.854;13.778;2023-01-28T01:13:54;0.70;99.90
18876;DHT22;9570;50.854;13.778;2023-01-28T01:16:21;0.60;99.90
18876;DHT22;9570;50.854;13.778;2023-01-28T01:18:47;0.60;99.90
18876;DHT22;9570;50.854;13.778;2023-01-28T01:21:16;0.60;99.90
18876;DHT22;9570;50.854;13.778;2023-01-28T01:23:42;0.60;99.90
18876;DHT22;9570;50.854;13.778;2023-01-28T01:26:08;0.60;99.90
18876;DHT22;9570;50.854;13.778;2023-01-28T01:28:34;0.60;99.90
18876;DHT22;9570;50.854;13.778;2023-01-28T01:31:01;0.60;99.90
18876;DHT22;9570;50.854;13.778;2023-01-28T01:33:28;0.60;99.90
18876;DHT22;9570;50.854;13.778;2023-01-28T01:35:54;0.60;99.90
18876;DHT22;9570;50.854;13.778;2023-01-28T01:38:20;0.60;99.90
18876;DHT22;9570;50.854;13.778;2023-01-28T01:40:45;0.60;99.90
18876;DHT22;9570;50.854;13.778;2023-01-28T01:43:44;0.50;99.90
18876;DHT22;9570;50.854;13.778;2023-01-28T01:46:11;0.50;99.90
18876;DHT22;9570;50.854;13.778;2023-01-28T01:48:37;0.50;99.90
18876;DHT22;9570;50.854;13.778;2023-01-28T01:51:09;0.50;99.90
18876;DHT22;9570;50.854;13.778;2023-01-28T01:53:37;0.50;99.90
18876;DHT22;9570;50.854;13.778;2023-01-28T01:56:07;0.50;99.90
18876;DHT22;9570;50.854;13.778;2023-01-28T01:58:35;0.40;99.90
18876;DHT22;9570;50.854;13.778;2023-01-28T02:01:04;0.30;99.90
18876;DHT22;9570;50.854;13.778;2023-01-28T02:03:40;0.30;99.90
18876;DHT22;9570;50.854;13.778;2023-01-28T02:06:08;0.30;99.90
18876;DHT22;9570;50.854;13.778;2023-01-28T02:08:33;0.20;99.90
18876;DHT22;9570;50.854;13.778;2023-01-28T02:11:04;0.20;99.90
18876;DHT22;9570;50.854;13.778;2023-01-28T02:13:41;0.30;99.90
18876;DHT22;9570;50.854;13.778;2023-01-28T02:16:08;0.20;99.90
18876;DHT22;9570;50.854;13.778;2023-01-28T02:18:34;0.10;99.90
18876;DHT22;9570;50.854;13.778;2023-01-28T02:28:51;0.20;99.90
18876;DHT22;9570;50.854;13.778;2023-01-28T02:31:42;0.20;99.90
18876;DHT22;9570;50.854;13.778;2023-01-28T02:34:27;0.10;99.90
18876;DHT22;9570;50.854;13.778;2023-01-28T02:39:44;0.20;99.90
18876;DHT22;9570;50.854;13.778;2023-01-28T02:42:20;0.20;99.90
18876;DHT22;9570;50.854;13.778;2023-01-28T02:44:47;0.20;99.90
18876;DHT22;9570;50.854;13.778;2023-01-28T02:47:13;0.20;99.90
18876;DHT22;9570;50.854;13.778;2023-01-28T02:50:06;0.30;99.90
18876;DHT22;9570;50.854;13.778;2023-01-28T02:52:55;0.30;99.90
18876;DHT22;9570;50.854;13.778;2023-01-28T03:01:25;0.20;99.90
18876;DHT22;9570;50.854;13.778;2023-01-28T03:04:08;0.20;99.90
18876;DHT22;9570;50.854;13.778;2023-01-28T03:06:43;0.20;99.90
18876;DHT22;9570;50.854;13.778;2023-01-28T03:09:10;0.20;99.90
18876;DHT22;9570;50.854;13.778;2023-01-28T03:11:56;0.20;99.90
18876;DHT22;9570;50.854;13.778;2023-01-28T03:14:42;0.20;99.90
18876;DHT22;9570;50.854;13.778;2023-01-28T03:17:36;0.20;99.90
18876;DHT22;9570;50.854;13.778;2023-01-28T03:20:28;0.10;99.90
18876;DHT22;9570;50.854;13.778;2023-01-28T03:23:17;0.20;99.90
18876;DHT22;9570;50.854;13.778;2023-01-28T03:26:06;0.10;99.90
18876;DHT22;9570;50.854;13.778;2023-01-28T03:28:52;0.10;99.90
18876;DHT22;9570;50.854;13.778;2023-01-28T03:31:37;0.10;99.90
18876;DHT22;9570;50.854;13.778;2023-01-28T03:34:22;0.10;99.90
18876;DHT22;9570;50.854;13.778;2023-01-28T03:37:07;0.10;99.90
18876;DHT22;9570;50.854;13.778;2023-01-28T03:39:33;0.10;99.90
18876;DHT22;9570;50.854;13.778;2023-01-28T03:42:11;0.10;99.90
18876;DHT22;9570;50.854;13.778;2023-01-28T03:44:37;0.00;99.90
18876;DHT22;9570;50.854;13.778;2023-01-28T03:47:17;0.00;99.90
18876;DHT22;9570;50.854;13.778;2023-01-28T03:49:44;0.00;99.90
18876;DHT22;9570;50.854;13.778;2023-01-28T03:52:11;0.10;99.90
18876;DHT22;9570;50.854;13.778;2023-01-28T03:54:37;0.10;99.90
18876;DHT22;9570;50.854;13.778;2023-01-28T03:57:03;0.10;99.90
18876;DHT22;9570;50.854;13.778;2023-01-28T03:59:30;0.10;99.90
18876;DHT22;9570;50.854;13.778;2023-01-28T04:01:56;0.10;99.90
18876;DHT22;9570;50.854;13.778;2023-01-28T04:04:21;0.10;99.90
18876;DHT22;9570;50.854;13.778;2023-01-28T04:06:50;0.00;99.90
18876;DHT22;9570;50.854;13.778;2023-01-28T04:09:16;0.00;99.90
18876;DHT22;9570;50.854;13.778;2023-01-28T04:11:42;0.10;99.90
18876;DHT22;9570;50.854;13.778;2023-01-28T04:14:07;0.20;99.90
18876;DHT22;9570;50.854;13.778;2023-01-28T04:16:33;0.20;99.90
18876;DHT22;9570;50.854;13.778;2023-01-28T04:18:58;0.10;99.90
18876;DHT22;9570;50.854;13.778;2023-01-28T04:21:24;0.10;99.90
18876;DHT22;9570;50.854;13.778;2023-01-28T04:23:50;0.10;99.90
18876;DHT22;9570;50.854;13.778;2023-01-28T04:26:16;0.20;99.90
18876;DHT22;9570;50.854;13.778;2023-01-28T04:28:41;0.30;99.90
18876;DHT22;9570;50.854;13.778;2023-01-28T04:31:07;0.30;99.90
18876;DHT22;9570;50.854;13.778;2023-01-28T04:33:32;0.30;99.90
18876;DHT22;9570;50.854;13.778;2023-01-28T04:35:57;0.30;99.90
18876;DHT22;9570;50.854;13.778;2023-01-28T04:38:23;0.30;99.90
18876;DHT22;9570;50.854;13.778;2023-01-28T04:40:52;0.30;99.90
18876;DHT22;9570;50.854;13.778;2023-01-28T04:43:18;0.40;99.90
18876;DHT22;9570;50.854;13.778;2023-01-28T04:45:46;0.30;99.90
18876;DHT22;9570;50.854;13.778;2023-01-28T04:48:13;0.10;99.90
18876;DHT22;9570;50.854;13.778;2023-01-28T04:50:39;0.10;99.90
18876;DHT22;9570;50.854;13.778;2023-01-28T04:53:04;0.00;99.90
18876;DHT22;9570;50.854;13.778;2023-01-28T04:55:30;0.00;99.90
18876;DHT22;9570;50.854;13.778;2023-01-28T04:57:55;0.00;99.90
18876;DHT22;9570;50.854;13.778;2023-01-28T05:00:21;0.00;99.90
18876;DHT22;9570;50.854;13.778;2023-01-28T05:02:46;0.00;99.90
18876;DHT22;9570;50.854;13.778;2023-01-28T05:05:12;0.00;99.90
18876;DHT22;9570;50.854;13.778;2023-01-28T05:07:37;0.00;99.90
18876;DHT22;9570;50.854;13.778;2023-01-28T05:10:03;0.00;99.90
18876;DHT22;9570;50.854;13.778;2023-01-28T05:12:29;0.00;99.90
18876;DHT22;9570;50.854;13.778;2023-01-28T05:14:57;0.00;99.90
18876;DHT22;9570;50.854;13.778;2023-01-28T05:17:25;0.00;99.90
18876;DHT22;9570;50.854;13.778;2023-01-28T05:19:50;0.00;99.90
18876;DHT22;9570;50.854;13.778;2023-01-28T05:22:16;-0.10;99.90
18876;DHT22;9570;50.854;13.778;2023-01-28T05:24:41;-0.10;99.90
18876;DHT22;9570;50.854;13.778;2023-01-28T05:27:07;-0.20;99.90
18876;DHT22;9570;50.854;13.778;2023-01-28T05:29:32;-0.30;99.90
18876;DHT22;9570;50.854;13.778;2023-01-28T05:31:58;-0.40;99.90
18876;DHT22;9570;50.854;13.778;2023-01-28T05:34:23;-0.40;99.90
18876;DHT22;9570;50.854;13.778;2023-01-28T05:36:49;-0.40;99.90
18876;DHT22;9570;50.854;13.778;2023-01-28T05:39:14;-0.40;99.90
18876;DHT22;9570;50.854;13.778;2023-01-28T05:41:39;-0.50;99.90
18876;DHT22;9570;50.854;13.778;2023-01-28T05:44:05;-0.60;99.90
18876;DHT22;9570;50.854;13.778;2023-01-28T05:46:30;-0.60;99.90
18876;DHT22;9570;50.854;13.778;2023-01-28T05:48:56;-0.70;99.90
18876;DHT22;9570;50.854;13.778;2023-01-28T05:51:21;-0.70;99.90
18876;DHT22;9570;50.854;13.778;2023-01-28T05:53:47;-0.70;99.90
18876;DHT22;9570;50.854;13.778;2023-01-28T05:56:12;-0.80;99.90
18876;DHT22;9570;50.854;13.778;2023-01-28T05:58:38;-0.70;99.90
18876;DHT22;9570;50.854;13.778;2023-01-28T06:01:03;-0.70;99.90
18876;DHT22;9570;50.854;13.778;2023-01-28T06:03:29;-0.70;99.90
18876;DHT22;9570;50.854;13.778;2023-01-28T06:05:54;-0.80;99.90
18876;DHT22;9570;50.854;13.778;2023-01-28T06:08:20;-0.90;99.90
18876;DHT22;9570;50.854;13.778;2023-01-28T06:10:45;-0.90;99.90
18876;DHT22;9570;50.854;13.778;2023-01-28T06:13:11;-0.90;99.90
18876;DHT22;9570;50.854;13.778;2023-01-28T06:15:37;-1.10;99.90
18876;DHT22;9570;50.854;13.778;2023-01-28T06:18:02;-1.10;99.90
18876;DHT22;9570;50.854;13.778;2023-01-28T06:20:28;-1.20;99.90
18876;DHT22;9570;50.854;13.778;2023-01-28T06:22:53;-1.30;99.90
18876;DHT22;9570;50.854;13.778;2023-01-28T06:25:19;-1.30;99.90
18876;DHT22;9570;50.854;13.778;2023-01-28T06:27:45;-1.30;99.90
18876;DHT22;9570;50.854;13.778;2023-01-28T06:30:11;-1.30;99.90
18876;DHT22;9570;50.854;13.778;2023-01-28T06:32:37;-1.20;99.90
18876;DHT22;9570;50.854;13.778;2023-01-28T06:35:03;-1.10;99.90
18876;DHT22;9570;50.854;13.778;2023-01-28T06:37:28;-1.10;99.90
18876;DHT22;9570;50.854;13.778;2023-01-28T06:39:54;-1.00;99.90
18876;DHT22;9570;50.854;13.778;2023-01-28T06:42:19;-1.10;99.90
18876;DHT22;9570;50.854;13.778;2023-01-28T06:44:45;-1.20;99.90
18876;DHT22;9570;50.854;13.778;2023-01-28T06:47:10;-1.40;99.90
18876;DHT22;9570;50.854;13.778;2023-01-28T06:49:36;-1.40;99.90
18876;DHT22;9570;50.854;13.778;2023-01-28T06:52:02;-1.40;99.90
18876;DHT22;9570;50.854;13.778;2023-01-28T06:54:28;-1.50;99.90
18876;DHT22;9570;50.854;13.778;2023-01-28T06:56:54;-1.50;99.90
18876;DHT22;9570;50.854;13.778;2023-01-28T06:59:19;-1.50;99.90
18876;DHT22;9570;50.854;13.778;2023-01-28T07:01:45;-1.50;99.90
18876;DHT22;9570;50.854;13.778;2023-01-28T07:04:11;-1.60;99.90
18876;DHT22;9570;50.854;13.778;2023-01-28T07:06:36;-1.60;99.90
18876;DHT22;9570;50.854;13.778;2023-01-28T07:09:02;-1.50;99.90
18876;DHT22;9570;50.854;13.778;2023-01-28T07:11:27;-1.60;99.90
18876;DHT22;9570;50.854;13.778;2023-01-28T07:13:53;-1.50;99.90
18876;DHT22;9570;50.854;13.778;2023-01-28T07:16:18;-1.50;99.90
18876;DHT22;9570;50.854;13.778;2023-01-28T07:18:43;-1.40;99.90
18876;DHT22;9570;50.854;13.778;2023-01-28T07:21:09;-1.50;99.90
18876;DHT22;9570;50.854;13.778;2023-01-28T07:23:34;-1.60;99.90
18876;DHT22;9570;50.854;13.778;2023-01-28T07:26:02;-1.60;99.90
18876;DHT22;9570;50.854;13.778;2023-01-28T07:28:27;-1.70;99.90
18876;DHT22;9570;50.854;13.778;2023-01-28T07:30:53;-1.70;99.90
18876;DHT22;9570;50.854;13.778;2023-01-28T07:33:18;-1.70;99.90
18876;DHT22;9570;50.854;13.778;2023-01-28T07:35:45;-1.70;99.90
18876;DHT22;9570;50.854;13.778;2023-01-28T07:38:11;-1.70;99.90
18876;DHT22;9570;50.854;13.778;2023-01-28T07:40:36;-1.80;99.90
18876;DHT22;9570;50.854;13.778;2023-01-28T07:43:02;-1.90;99.90
18876;DHT22;9570;50.854;13.778;2023-01-28T07:45:28;-1.90;99.90
18876;DHT22;9570;50.854;13.778;2023-01-28T07:47:57;-1.80;99.90
18876;DHT22;9570;50.854;13.778;2023-01-28T07:50:23;-1.80;99.90
18876;DHT22;9570;50.854;13.778;2023-01-28T07:52:49;-1.70;99.90
18876;DHT22;9570;50.854;13.778;2023-01-28T07:55:15;-1.70;99.90
18876;DHT22;9570;50.854;13.778;2023-01-28T07:58:08;-1.80;99.90
18876;DHT22;9570;50.854;13.778;2023-01-28T08:00:35;-1.70;99.90
18876;DHT22;9570;50.854;13.778;2023-01-28T08:03:04;-1.70;99.90
18876;DHT22;9570;50.854;13.778;2023-01-28T08:05:39;-1.70;99.90
18876;DHT22;9570;50.854;13.778;2023-01-28T08:08:07;-1.70;99.90
18876;DHT22;9570;50.854;13.778;2023-01-28T08:10:32;-1.70;99.90
18876;DHT22;9570;50.854;13.778;2023-01-28T08:12:58;-1.80;99.90
18876;DHT22;9570;50.854;13.778;2023-01-28T08:15:24;-1.80;99.90
18876;DHT22;9570;50.854;13.778;2023-01-28T08:17:52;-1.70;99.90
18876;DHT22;9570;50.854;13.778;2023-01-28T08:20:17;-1.90;99.90
18876;DHT22;9570;50.854;13.778;2023-01-28T08:22:43;-1.90;99.90
18876;DHT22;9570;50.854;13.778;2023-01-28T08:25:08;-1.90;99.90
18876;DHT22;9570;50.854;13.778;2023-01-28T08:27:34;-1.90;99.90
18876;DHT22;9570;50.854;13.778;2023-01-28T08:29:59;-1.80;99.90
18876;DHT22;9570;50.854;13.778;2023-01-28T08:32:25;-1.70;99.90
18876;DHT22;9570;50.854;13.778;2023-01-28T08:34:50;-1.70;99.90
18876;DHT22;9570;50.854;13.778;2023-01-28T08:37:16;-1.70;99.90
18876;DHT22;9570;50.854;13.778;2023-01-28T08:39:41;-1.60;99.90
18876;DHT22;9570;50.854;13.778;2023-01-28T08:42:07;-1.70;99.90
18876;DHT22;9570;50.854;13.778;2023-01-28T08:44:32;-1.70;99.90
18876;DHT22;9570;50.854;13.778;2023-01-28T08:46:58;-1.70;99.90
18876;DHT22;9570;50.854;13.778;2023-01-28T08:49:24;-1.70;99.90
18876;DHT22;9570;50.854;13.778;2023-01-28T08:51:49;-1.60;99.90
18876;DHT22;9570;50.854;13.778;2023-01-28T08:54:15;-1.60;99.90
18876;DHT22;9570;50.854;13.778;2023-01-28T08:56:41;-1.60;99.90
18876;DHT22;9570;50.854;13.778;2023-01-28T08:59:12;-1.50;99.90
18876;DHT22;9570;50.854;13.778;2023-01-28T09:01:37;-1.50;99.90
18876;DHT22;9570;50.854;13.778;2023-01-28T09:04:03;-1.60;99.90
18876;DHT22;9570;50.854;13.778;2023-01-28T09:06:28;-1.50;99.90
18876;DHT22;9570;50.854;13.778;2023-01-28T09:09:00;-1.50;99.90
18876;DHT22;9570;50.854;13.778;2023-01-28T09:11:26;-1.60;99.90
18876;DHT22;9570;50.854;13.778;2023-01-28T09:13:52;-1.70;99.90
18876;DHT22;9570;50.854;13.778;2023-01-28T09:16:18;-1.70;99.90
18876;DHT22;9570;50.854;13.778;2023-01-28T09:18:43;-1.80;99.90
18876;DHT22;9570;50.854;13.778;2023-01-28T09:21:09;-1.80;99.90
18876;DHT22;9570;50.854;13.778;2023-01-28T09:23:36;-1.90;99.90
18876;DHT22;9570;50.854;13.778;2023-01-28T09:26:03;-1.80;99.90
18876;DHT22;9570;50.854;13.778;2023-01-28T09:28:28;-1.90;99.90
18876;DHT22;9570;50.854;13.778;2023-01-28T09:31:07;-1.90;99.90
18876;DHT22;9570;50.854;13.778;2023-01-28T09:33:34;-1.90;99.90
18876;DHT22;9570;50.854;13.778;2023-01-28T09:36:01;-1.80;99.90
18876;DHT22;9570;50.854;13.778;2023-01-28T09:38:28;-1.90;99.90
18876;DHT22;9570;50.854;13.778;2023-01-28T09:40:54;-1.80;99.90
18876;DHT22;9570;50.854;13.778;2023-01-28T09:43:46;-1.70;99.90
18876;DHT22;9570;50.854;13.778;2023-01-28T09:46:14;-1.60;99.90
18876;DHT22;9570;50.854;13.778;2023-01-28T09:48:47;-1.60;99.90
18876;DHT22;9570;50.854;13.778;2023-01-28T09:51:30;-1.50;99.90
18876;DHT22;9570;50.854;13.778;2023-01-28T09:53:59;-1.40;99.90
18876;DHT22;9570;50.854;13.778;2023-01-28T09:56:35;-1.30;99.90
18876;DHT22;9570;50.854;13.778;2023-01-28T10:01:59;-1.40;99.90
18876;DHT22;9570;50.854;13.778;2023-01-28T10:13:30;-1.30;99.90
18876;DHT22;9570;50.854;13.778;2023-01-28T10:16:14;-1.40;99.90
18876;DHT22;9570;50.854;13.778;2023-01-28T10:18:50;-1.40;99.90
18876;DHT22;9570;50.854;13.778;2023-01-28T10:21:25;-1.40;99.90
18876;DHT22;9570;50.854;13.778;2023-01-28T10:24:14;-1.30;99.90
18876;DHT22;9570;50.854;13.778;2023-01-28T10:26:41;-1.20;99.90
18876;DHT22;9570;50.854;13.778;2023-01-28T10:29:26;-1.30;99.90
18876;DHT22;9570;50.854;13.778;2023-01-28T10:34:37;-1.20;99.90
18876;DHT22;9570;50.854;13.778;2023-01-28T10:37:03;-1.30;99.90
18876;DHT22;9570;50.854;13.778;2023-01-28T10:39:29;-1.20;99.90
18876;DHT22;9570;50.854;13.778;2023-01-28T10:41:54;-1.20;99.90
18876;DHT22;9570;50.854;13.778;2023-01-28T10:44:31;-1.30;99.90
18876;DHT22;9570;50.854;13.778;2023-01-28T10:47:01;-1.30;99.90
18876;DHT22;9570;50.854;13.778;2023-01-28T10:49:30;-1.40;99.90
18876;DHT22;9570;50.854;13.778;2023-01-28T10:51:55;-1.30;99.90
18876;DHT22;9570;50.854;13.778;2023-01-28T10:54:26;-1.30;99.90
18876;DHT22;9570;50.854;13.778;2023-01-28T10:56:59;-1.20;99.90
18876;DHT22;9570;50.854;13.778;2023-01-28T10:59:33;-1.20;99.90
18876;DHT22;9570;50.854;13.778;2023-01-28T11:02:03;-1.10;99.90
18876;DHT22;9570;50.854;13.778;2023-01-28T11:04:34;-1.10;99.90
18876;DHT22;9570;50.854;13.778;2023-01-28T11:07:02;-1.20;99.90
18876;DHT22;9570;50.854;13.778;2023-01-28T11:11:56;-1.10;99.90
18876;DHT22;9570;50.854;13.778;2023-01-28T11:14:26;-1.20;99.90
18876;DHT22;9570;50.854;13.778;2023-01-28T11:16:53;-1.20;99.90
18876;DHT22;9570;50.854;13.778;2023-01-28T11:19:24;-1.30;99.90
18876;DHT22;9570;50.854;13.778;2023-01-28T11:21:53;-1.30;99.90
18876;DHT22;9570;50.854;13.778;2023-01-28T11:24:23;-1.40;99.90
18876;DHT22;9570;50.854;13.778;2023-01-28T11:26:52;-1.50;99.90
18876;DHT22;9570;50.854;13.778;2023-01-28T11:29:28;-1.40;99.90
18876;DHT22;9570;50.854;13.778;2023-01-28T11:31:55;-1.60;99.90
18876;DHT22;9570;50.854;13.778;2023-01-28T11:34:25;-1.60;99.90
18876;DHT22;9570;50.854;13.778;2023-01-28T11:37:01;-1.50;99.90
18876;DHT22;9570;50.854;13.778;2023-01-28T11:39:30;-1.50;99.90
18876;DHT22;9570;50.854;13.778;2023-01-28T11:42:20;-1.50;99.90
18876;DHT22;9570;50.854;13.778;2023-01-28T11:44:47;-1.50;99.90
18876;DHT22;9570;50.854;13.778;2023-01-28T11:47:38;-1.60;99.90
18876;DHT22;9570;50.854;13.778;2023-01-28T12:06:57;-1.40;99.90
18876;DHT22;9570;50.854;13.778;2023-01-28T12:09:37;-1.40;99.90
18876;DHT22;9570;50.854;13.778;2023-01-28T12:12:20;-1.40;99.90
18876;DHT22;9570;50.854;13.778;2023-01-28T12:15:19;-1.30;99.90
18876;DHT22;9570;50.854;13.778;2023-01-28T12:18:18;-1.30;99.90
18876;DHT22;9570;50.854;13.778;2023-01-28T12:21:09;-1.20;99.90
18876;DHT22;9570;50.854;13.778;2023-01-28T12:23:57;-1.30;99.90
18876;DHT22;9570;50.854;13.778;2023-01-28T12:26:49;-1.40;99.90
18876;DHT22;9570;50.854;13.778;2023-01-28T12:29:34;-1.30;99.90
18876;DHT22;9570;50.854;13.778;2023-01-28T12:32:09;-1.30;99.90
18876;DHT22;9570;50.854;13.778;2023-01-28T12:40:49;-1.20;99.90
18876;DHT22;9570;50.854;13.778;2023-01-28T12:43:26;-1.30;99.90
18876;DHT22;9570;50.854;13.778;2023-01-28T12:45:56;-1.20;99.90
18876;DHT22;9570;50.854;13.778;2023-01-28T12:48:33;-1.30;99.90
18876;DHT22;9570;50.854;13.778;2023-01-28T12:51:06;-1.30;99.90
18876;DHT22;9570;50.854;13.778;2023-01-28T12:56:31;-1.30;99.90
18876;DHT22;9570;50.854;13.778;2023-01-28T12:59:14;-1.10;99.90
18876;DHT22;9570;50.854;13.778;2023-01-28T13:04:50;-1.20;99.90
18876;DHT22;9570;50.854;13.778;2023-01-28T13:07:45;-1.10;99.90
18876;DHT22;9570;50.854;13.778;2023-01-28T13:10:23;-1.30;99.90
18876;DHT22;9570;50.854;13.778;2023-01-28T13:12:49;-1.40;99.90
18876;DHT22;9570;50.854;13.778;2023-01-28T13:15:16;-1.30;99.90
18876;DHT22;9570;50.854;13.778;2023-01-28T13:18:00;-1.20;99.90
18876;DHT22;9570;50.854;13.778;2023-01-28T13:20:38;-1.20;99.90
18876;DHT22;9570;50.854;13.778;2023-01-28T13:23:20;-1.30;99.90
18876;DHT22;9570;50.854;13.778;2023-01-28T13:25:53;-1.30;99.90
18876;DHT22;9570;50.854;13.778;2023-01-28T13:28:31;-1.20;99.90
18876;DHT22;9570;50.854;13.778;2023-01-28T13:31:11;-1.30;99.90
18876;DHT22;9570;50.854;13.778;2023-01-28T13:33:46;-1.40;99.90
18876;DHT22;9570;50.854;13.778;2023-01-28T13:36:38;-1.30;99.90
18876;DHT22;9570;50.854;13.778;2023-01-28T13:39:14;-1.50;99.90
18876;DHT22;9570;50.854;13.778;2023-01-28T13:41:50;-1.60;99.90
18876;DHT22;9570;50.854;13.778;2023-01-28T13:44:29;-1.50;99.90
18876;DHT22;9570;50.854;13.778;2023-01-28T13:49:40;-1.60;99.90
18876;DHT22;9570;50.854;13.778;2023-01-28T13:52:36;-1.60;99.90
18876;DHT22;9570;50.854;13.778;2023-01-28T13:55:13;-1.60;99.90
18876;DHT22;9570;50.854;13.778;2023-01-28T14:08:59;-1.50;99.90
18876;DHT22;9570;50.854;13.778;2023-01-28T14:14:59;-1.60;99.90
18876;DHT22;9570;50.854;13.778;2023-01-28T14:17:50;-1.60;99.90
18876;DHT22;9570;50.854;13.778;2023-01-28T14:20:28;-1.50;99.90
18876;DHT22;9570;50.854;13.778;2023-01-28T14:23:01;-1.30;99.90
18876;DHT22;9570;50.854;13.778;2023-01-28T14:29:22;-1.20;99.90
18876;DHT22;9570;50.854;13.778;2023-01-28T14:31:32;-1.10;99.90
18876;DHT22;9570;50.854;13.778;2023-01-28T14:34:08;-1.00;99.90
18876;DHT22;9570;50.854;13.778;2023-01-28T14:36:37;-0.90;99.90
18876;DHT22;9570;50.854;13.778;2023-01-28T14:39:03;-0.90;99.90
18876;DHT22;9570;50.854;13.778;2023-01-28T14:41:29;-0.90;99.90
18876;DHT22;9570;50.854;13.778;2023-01-28T14:43:54;-0.90;99.90
18876;DHT22;9570;50.854;13.778;2023-01-28T14:46:36;-0.90;99.90
18876;DHT22;9570;50.854;13.778;2023-01-28T14:49:25;-0.90;99.90
18876;DHT22;9570;50.854;13.778;2023-01-28T14:54:47;-1.20;99.90
18876;DHT22;9570;50.854;13.778;2023-01-28T14:57:33;-1.20;99.90
18876;DHT22;9570;50.854;13.778;2023-01-28T14:59:59;-1.30;99.90
18876;DHT22;9570;50.854;13.778;2023-01-28T15:02:32;-1.30;99.90
18876;DHT22;9570;50.854;13.778;2023-01-28T15:05:09;-1.40;99.90
18876;DHT22;9570;50.854;13.778;2023-01-28T15:07:35;-1.30;99.90
18876;DHT22;9570;50.854;13.778;2023-01-28T15:12:34;-1.30;99.90
18876;DHT22;9570;50.854;13.778;2023-01-28T15:15:20;-1.30;99.90
18876;DHT22;9570;50.854;13.778;2023-01-28T15:17:47;-1.30;99.90
18876;DHT22;9570;50.854;13.778;2023-01-28T15:20:19;-1.30;99.90
18876;DHT22;9570;50.854;13.778;2023-01-28T15:22:45;-1.20;99.90
18876;DHT22;9570;50.854;13.778;2023-01-28T15:25:16;-1.20;99.90
18876;DHT22;9570;50.854;13.778;2023-01-28T15:27:42;-1.10;99.90
18876;DHT22;9570;50.854;13.778;2023-01-28T15:30:23;-1.30;99.90
18876;DHT22;9570;50.854;13.778;2023-01-28T15:33:11;-1.30;99.90
18876;DHT22;9570;50.854;13.778;2023-01-28T15:35:45;-1.30;99.90
18876;DHT22;9570;50.854;13.778;2023-01-28T15:38:10;-1.40;99.90
18876;DHT22;9570;50.854;13.778;2023-01-28T15:40:44;-1.50;99.90
18876;DHT22;9570;50.854;13.778;2023-01-28T15:43:21;-1.30;99.90
18876;DHT22;9570;50.854;13.778;2023-01-28T15:45:48;-1.30;99.90
18876;DHT22;9570;50.854;13.778;2023-01-28T15:48:15;-1.20;99.90
18876;DHT22;9570;50.854;13.778;2023-01-28T15:50:42;-1.20;99.90
18876;DHT22;9570;50.854;13.778;2023-01-28T15:53:10;-1.10;99.90
18876;DHT22;9570;50.854;13.778;2023-01-28T15:55:41;-1.10;99.90
18876;DHT22;9570;50.854;13.778;2023-01-28T15:58:30;-1.10;99.90
18876;DHT22;9570;50.854;13.778;2023-01-28T16:03:28;-1.10;99.90
18876;DHT22;9570;50.854;13.778;2023-01-28T16:05:57;-1.10;99.90
18876;DHT22;9570;50.854;13.778;2023-01-28T16:08:33;-1.10;99.90
18876;DHT22;9570;50.854;13.778;2023-01-28T16:11:01;-1.10;99.90
18876;DHT22;9570;50.854;13.778;2023-01-28T16:13:30;-1.20;99.90
18876;DHT22;9570;50.854;13.778;2023-01-28T16:15:57;-1.30;99.90
18876;DHT22;9570;50.854;13.778;2023-01-28T16:18:40;-1.40;99.90
18876;DHT22;9570;50.854;13.778;2023-01-28T16:21:10;-1.50;99.90
18876;DHT22;9570;50.854;13.778;2023-01-28T16:23:37;-1.60;99.90
18876;DHT22;9570;50.854;13.778;2023-01-28T16:26:20;-1.60;99.90
18876;DHT22;9570;50.854;13.778;2023-01-28T16:28:45;-1.60;99.90
18876;DHT22;9570;50.854;13.778;2023-01-28T16:31:11;-1.50;99.90
18876;DHT22;9570;50.854;13.778;2023-01-28T16:33:36;-1.50;99.90
18876;DHT22;9570;50.854;13.778;2023-01-28T16:36:02;-1.50;99.90
18876;DHT22;9570;50.854;13.778;2023-01-28T16:38:29;-1.50;99.90
18876;DHT22;9570;50.854;13.778;2023-01-28T16:40:54;-1.40;99.90
18876;DHT22;9570;50.854;13.778;2023-01-28T16:43:20;-1.30;99.90
18876;DHT22;9570;50.854;13.778;2023-01-28T16:45:45;-1.30;99.90
18876;DHT22;9570;50.854;13.778;2023-01-28T16:48:12;-1.40;99.90
18876;DHT22;9570;50.854;13.778;2023-01-28T16:50:39;-1.50;99.90
18876;DHT22;9570;50.854;13.778;2023-01-28T16:53:14;-1.40;99.90
18876;DHT22;9570;50.854;13.778;2023-01-28T16:55:41;-1.40;99.90
18876;DHT22;9570;50.854;13.778;2023-01-28T16:58:07;-1.30;99.90
18876;DHT22;9570;50.854;13.778;2023-01-28T17:00:33;-1.30;99.90
18876;DHT22;9570;50.854;13.778;2023-01-28T17:03:00;-1.30;99.90
18876;DHT22;9570;50.854;13.778;2023-01-28T17:05:26;-1.30;99.90
18876;DHT22;9570;50.854;13.778;2023-01-28T17:07:51;-1.30;99.90
18876;DHT22;9570;50.854;13.778;2023-01-28T17:10:19;-1.30;99.90
18876;DHT22;9570;50.854;13.778;2023-01-28T17:12:47;-1.30;99.90
18876;DHT22;9570;50.854;13.778;2023-01-28T17:15:13;-1.30;99.90
18876;DHT22;9570;50.854;13.778;2023-01-28T17:17:38;-1.30;99.90
18876;DHT22;9570;50.854;13.778;2023-01-28T17:20:04;-1.30;99.90
18876;DHT22;9570;50.854;13.778;2023-01-28T17:22:30;-1.30;99.90
18876;DHT22;9570;50.854;13.778;2023-01-28T17:24:56;-1.30;99.90